Main page
METAR-TAF:

METAR-TAF

Airports :

Dhahran, Saudi Arabia

King Abdulaziz Air Base

latitude: 26-16N, longitude: 050-09E, elevation: 26 m

Current weather observation

The report was made 57 minutes ago, at 04:00 UTC
Wind 4 kt from the South/Southeast
Temperature 35°C
Humidity 75%
Pressure 1000 hPa
Visibility: 5000 m
haze

METAR: OEDR 240400Z 16004KT 5000 HZ NSC 35/30 Q1000 NOSIG

Time: 07:57 (04:57 UTC)

Forecast

The report was made 8 hours and 17 minutes ago, at 20:40 UTC
Forecast valid from 24 at 00 UTC to 25 at 06 UTC
Wind 5 kt from variable directions
Visibility: 8000 m
Probability 30% :
Temporary
from 24 at 00 UTC to 24 at 05 UTC
Visibility: 4000 m
haze
Becoming
from 24 at 08 UTC to 24 at 10 UTC
Wind 12 kt from the East

TAF: OEDR 232040Z 2400/2506 VRB05KT 8000 NSC PROB30 TEMPO 2400/2405 4000 HZ BECMG 2408/2410 08012KT

Weather observations and forecasts of more than 4000 airports (METAR and TAF reports).

The available stations are represented by yellow and red dots on the map.

Hover mouse over dot to see the name of the station.

Then click to see weather observations and forecasts.

To change the map : click on the green buttons with a black cross to zoom in, on the green button with a dash to zoom out, or on the green arrows for adjacent maps.


METAR-TAF: